createdAt,value
2023-04-12T00:01:48.365Z,6.48
2023-04-12T00:06:49.921Z,6.53
2023-04-12T00:11:51.612Z,6.68
2023-04-12T00:16:53.339Z,6.59
2023-04-12T00:21:55.087Z,6.70
2023-04-12T00:26:56.696Z,6.76
2023-04-12T00:31:59.753Z,6.88
2023-04-12T00:37:02.013Z,7.03
2023-04-12T00:42:04.161Z,7.12
2023-04-12T00:47:07.807Z,7.24
2023-04-12T00:52:11.046Z,7.23
2023-04-12T00:57:12.671Z,7.33
2023-04-12T01:02:14.476Z,7.45
2023-04-12T01:07:31.827Z,7.43
2023-04-12T01:12:53.395Z,7.44
2023-04-12T01:17:59.481Z,7.47
2023-04-12T01:23:01.515Z,7.45
2023-04-12T01:28:04.249Z,7.34
2023-04-12T01:33:07.432Z,7.34
2023-04-12T01:38:12.620Z,7.52
2023-04-12T01:43:15.919Z,7.60
2023-04-12T01:48:18.028Z,7.68
2023-04-12T01:53:28.420Z,7.86
2023-04-12T01:58:31.268Z,7.91
2023-04-12T02:03:33.355Z,8.00
2023-04-12T02:08:35.679Z,8.22
2023-04-12T02:13:37.898Z,8.35
2023-04-12T02:18:41.478Z,8.37
2023-04-12T02:23:45.659Z,8.47
2023-04-12T02:28:47.327Z,8.60
2023-04-12T02:33:51.222Z,8.66
2023-04-12T02:38:54.444Z,8.66
2023-04-12T02:43:56.345Z,8.70
2023-04-12T02:48:58.348Z,8.67
2023-04-12T02:54:07.968Z,8.55
2023-04-12T02:59:25.207Z,8.49
2023-04-12T03:04:51.043Z,8.46
2023-04-12T03:09:57.365Z,8.41
2023-04-12T03:15:01.103Z,8.39
2023-04-12T03:20:06.445Z,8.39
2023-04-12T03:25:10.211Z,8.39
2023-04-12T03:30:16.694Z,8.42
2023-04-12T03:35:19.484Z,8.40
2023-04-12T03:40:22.054Z,8.44
2023-04-12T03:45:32.372Z,8.45
2023-04-12T03:50:44.057Z,8.46
2023-04-12T03:55:50.066Z,8.51
2023-04-12T04:00:52.073Z,8.55
2023-04-12T04:05:53.974Z,8.56
2023-04-12T04:10:59.666Z,8.54
2023-04-12T04:16:09.502Z,8.46
2023-04-12T04:21:11.919Z,8.44
2023-04-12T04:26:15.721Z,8.40
2023-04-12T04:31:26.283Z,8.41
2023-04-12T04:36:28.279Z,8.42
2023-04-12T04:41:34.371Z,8.37
2023-04-12T04:46:39.663Z,8.33
2023-04-12T04:51:41.256Z,8.28
2023-04-12T04:56:46.172Z,8.25
2023-04-12T05:01:52.093Z,8.21
2023-04-12T05:06:53.985Z,8.20
2023-04-12T05:12:00.358Z,8.17
2023-04-12T05:17:02.286Z,8.20
2023-04-12T05:22:04.068Z,8.21
2023-04-12T05:27:05.843Z,8.15
2023-04-12T05:32:07.634Z,8.18
2023-04-12T05:37:12.124Z,8.19
2023-04-12T05:42:14.110Z,8.20
2023-04-12T05:47:16.850Z,8.22
2023-04-12T05:52:18.978Z,8.21
2023-04-12T05:57:20.981Z,8.20
2023-04-12T06:02:26.183Z,8.27
2023-04-12T06:07:28.566Z,8.28
2023-04-12T06:12:31.957Z,8.28
2023-04-12T06:17:33.612Z,8.33
2023-04-12T06:22:35.854Z,8.35
2023-04-12T06:27:37.826Z,8.43
2023-04-12T06:32:39.605Z,8.53
2023-04-12T06:37:41.576Z,8.56
2023-04-12T06:42:43.230Z,8.60
2023-04-12T06:47:45.229Z,8.64
2023-04-12T06:52:48.371Z,8.65
2023-04-12T06:57:52.138Z,8.67
2023-04-12T07:02:54.048Z,8.74
2023-04-12T07:07:56.077Z,8.83
2023-04-12T07:12:59.184Z,8.82
2023-04-12T07:18:00.879Z,8.88
2023-04-12T07:23:02.433Z,8.97
2023-04-12T07:28:04.684Z,9.04
2023-04-12T07:33:18.595Z,9.06
2023-04-12T07:38:21.075Z,9.15
2023-04-12T07:43:22.805Z,9.18
2023-04-12T07:48:24.729Z,9.24
2023-04-12T07:53:27.541Z,9.23
2023-04-12T07:58:29.116Z,9.25
2023-04-12T08:03:30.907Z,9.35
2023-04-12T08:08:32.472Z,9.50
2023-04-12T08:13:34.621Z,9.64
2023-04-12T08:18:36.305Z,9.83
2023-04-12T08:23:38.170Z,9.86
2023-04-12T08:28:40.182Z,9.91
2023-04-12T08:33:41.776Z,9.99
2023-04-12T08:38:46.103Z,10.03
2023-04-12T08:43:48.805Z,10.10
2023-04-12T08:48:54.150Z,10.11
2023-04-12T08:53:55.953Z,10.14
2023-04-12T08:58:57.809Z,10.05
2023-04-12T09:03:59.768Z,10.08
2023-04-12T09:14:22.265Z,10.20
2023-04-12T09:19:34.359Z,10.29
2023-04-12T09:24:45.678Z,10.37
2023-04-12T09:29:51.473Z,10.34
2023-04-12T09:34:57.621Z,10.41
2023-04-12T09:40:04.551Z,10.47
2023-04-12T09:45:20.210Z,10.50
2023-04-12T09:50:23.218Z,10.55
2023-04-12T09:55:26.297Z,10.74
2023-04-12T10:00:28.327Z,11.04
2023-04-12T10:05:30.297Z,11.30
2023-04-12T10:10:35.307Z,11.49
2023-04-12T10:15:38.008Z,11.61
2023-04-12T10:20:42.856Z,11.78
2023-04-12T10:25:49.663Z,11.85
2023-04-12T10:30:52.125Z,11.94
2023-04-12T10:36:00.404Z,11.91
2023-04-12T10:41:10.574Z,11.95
2023-04-12T10:46:31.076Z,11.94
2023-04-12T10:51:33.318Z,12.06
2023-04-12T10:56:45.519Z,12.20
2023-04-12T11:02:12.466Z,12.21
2023-04-12T11:07:17.530Z,12.16
2023-04-12T11:12:36.249Z,12.26
2023-04-12T11:17:38.130Z,12.33
2023-04-12T11:22:40.977Z,12.53
2023-04-12T11:27:51.341Z,12.74
2023-04-12T11:32:53.025Z,12.82
2023-04-12T11:37:55.172Z,12.76
2023-04-12T11:42:57.853Z,12.74
2023-04-12T11:47:59.626Z,12.76
2023-04-12T11:53:13.901Z,12.84
2023-04-12T11:58:16.423Z,12.96
2023-04-12T12:03:19.180Z,13.00
2023-04-12T12:08:21.206Z,12.98
2023-04-12T12:13:22.885Z,13.03
2023-04-12T12:18:28.782Z,13.08
2023-04-12T12:23:34.066Z,13.05
2023-04-12T12:28:39.356Z,13.04
2023-04-12T12:33:46.497Z,13.10
2023-04-12T12:38:52.878Z,13.13
2023-04-12T12:43:54.848Z,13.19
2023-04-12T12:48:56.460Z,13.23
2023-04-12T12:53:58.243Z,13.23
2023-04-12T12:59:00.319Z,13.29
2023-04-12T13:04:02.332Z,13.29
2023-04-12T13:09:04.177Z,13.32
2023-04-12T13:16:30.072Z,13.42
2023-04-12T13:21:31.883Z,13.64
2023-04-12T13:26:33.696Z,14.02
2023-04-12T13:31:35.359Z,14.45
2023-04-12T13:36:36.952Z,14.70
2023-04-12T13:41:38.574Z,15.10
2023-04-12T13:46:40.212Z,15.51
2023-04-12T13:51:41.847Z,15.66
2023-04-12T13:56:44.210Z,15.55
2023-04-12T14:01:46.355Z,15.61
2023-04-12T14:06:49.500Z,15.82
2023-04-12T14:11:51.522Z,16.11
2023-04-12T14:16:54.785Z,16.32
2023-04-12T14:21:56.805Z,16.52
2023-04-12T14:26:59.386Z,16.69
2023-04-12T14:32:00.983Z,16.46
2023-04-12T14:37:03.199Z,16.10
2023-04-12T14:42:05.767Z,15.97
2023-04-12T14:47:07.351Z,16.14
2023-04-12T14:52:09.426Z,16.37
2023-04-12T14:57:11.195Z,16.46
2023-04-12T15:02:13.322Z,16.58
2023-04-12T15:07:15.022Z,16.42
2023-04-12T15:12:17.116Z,16.19
2023-04-12T15:17:18.680Z,16.09
2023-04-12T15:22:20.268Z,16.01
2023-04-12T15:27:22.132Z,15.95
2023-04-12T15:32:26.289Z,15.91
2023-04-12T15:37:28.336Z,15.84
2023-04-12T15:42:30.404Z,15.77
2023-04-12T15:47:32.423Z,15.79
2023-04-12T15:52:33.999Z,15.80
2023-04-12T15:57:37.146Z,15.73
2023-04-12T16:02:39.026Z,15.81
2023-04-12T16:07:41.021Z,15.95
2023-04-12T16:12:42.555Z,16.04
2023-04-12T16:17:45.070Z,16.19
2023-04-12T16:22:48.145Z,16.27
2023-04-12T16:27:50.144Z,16.20
2023-04-12T16:32:53.037Z,16.09
2023-04-12T16:37:54.736Z,16.08
2023-04-12T16:42:57.379Z,16.04
2023-04-12T16:47:59.135Z,15.95
2023-04-12T16:53:01.563Z,15.90
2023-04-12T16:58:03.597Z,15.90
2023-04-12T17:03:05.718Z,15.79
2023-04-12T17:08:09.544Z,15.70
2023-04-12T17:13:11.594Z,15.61
2023-04-12T17:18:13.279Z,15.53
2023-04-12T17:23:15.669Z,15.47
2023-04-12T17:28:17.631Z,15.39
2023-04-12T17:33:19.451Z,15.32
2023-04-12T17:38:21.391Z,15.27
2023-04-12T17:43:23.107Z,15.20
2023-04-12T17:48:24.693Z,15.10
2023-04-12T17:53:26.496Z,15.03
2023-04-12T17:58:28.161Z,14.96
2023-04-12T18:03:30.191Z,14.90
2023-04-12T18:08:32.041Z,14.83
2023-04-12T18:13:34.053Z,14.78
2023-04-12T18:18:36.042Z,14.76
2023-04-12T18:23:38.161Z,14.72
2023-04-12T18:28:40.841Z,14.62
2023-04-12T18:38:33.508Z,14.31
2023-04-12T18:43:35.469Z,13.45
2023-04-12T18:48:37.331Z,12.86
2023-04-12T18:53:38.912Z,12.54
2023-04-12T18:58:54.071Z,12.35
2023-04-12T19:03:56.935Z,12.27
2023-04-12T19:08:58.987Z,12.24
2023-04-12T19:14:01.062Z,12.20
2023-04-12T19:19:02.827Z,12.25
2023-04-12T19:24:04.698Z,12.21
2023-04-12T19:29:06.575Z,12.13
2023-04-12T19:34:08.235Z,12.10
2023-04-12T19:39:10.324Z,12.11
2023-04-12T19:44:11.933Z,12.10
2023-04-12T19:49:13.794Z,12.15
2023-04-12T19:54:15.360Z,12.10
2023-04-12T19:59:17.784Z,12.14
2023-04-12T20:04:20.500Z,12.10
2023-04-12T20:09:26.105Z,12.11
2023-04-12T20:14:27.740Z,12.07
2023-04-12T20:19:29.293Z,12.07
2023-04-12T20:24:34.196Z,12.16
2023-04-12T20:29:36.173Z,12.18
2023-04-12T20:34:37.799Z,12.21
2023-04-12T20:39:40.319Z,12.18
2023-04-12T20:44:42.069Z,12.08
2023-04-12T20:49:46.053Z,12.03
2023-04-12T20:54:48.261Z,12.02
2023-04-12T20:59:53.222Z,11.97
2023-04-12T21:04:54.872Z,11.91
2023-04-12T21:09:56.637Z,11.85
2023-04-12T21:15:00.734Z,11.80
2023-04-12T21:20:13.644Z,11.79
2023-04-12T21:25:17.068Z,11.70
2023-04-12T21:30:18.872Z,11.65
2023-04-12T21:35:22.723Z,11.63
2023-04-12T21:40:24.331Z,11.47
2023-04-12T21:45:27.488Z,11.41
2023-04-12T21:50:29.047Z,11.38
2023-04-12T21:55:30.663Z,11.32
2023-04-12T22:00:32.356Z,11.21
2023-04-12T22:05:35.873Z,11.15
2023-04-12T22:10:37.639Z,11.04
2023-04-12T22:15:40.480Z,11.04
2023-04-12T22:20:42.472Z,11.02
2023-04-12T22:25:45.189Z,11.00
2023-04-12T22:30:48.388Z,11.01
2023-04-12T22:35:50.445Z,10.98
2023-04-12T22:40:52.292Z,11.01
2023-04-12T22:45:53.985Z,10.99
2023-04-12T22:50:55.788Z,10.98
2023-04-12T22:55:57.404Z,10.93
2023-04-12T23:00:59.160Z,10.92
2023-04-12T23:06:01.994Z,10.95
2023-04-12T23:11:04.680Z,10.91
2023-04-12T23:16:06.916Z,10.93
2023-04-12T23:21:11.029Z,10.91
2023-04-12T23:26:13.208Z,10.89
2023-04-12T23:31:15.170Z,10.86
2023-04-12T23:36:17.207Z,10.80
2023-04-12T23:41:18.740Z,10.78
2023-04-12T23:46:21.488Z,10.72
2023-04-12T23:51:23.177Z,10.67
2023-04-12T23:56:24.719Z,10.61
